sensor_id;sensor_type;location;lat;lon;timestamp;pressure;altitude;pressure_sealevel;temperature
34807;BMP280;18310;55.586;12.286;2023-05-03T00:00:24;102576.00;;;11.63
34807;BMP280;18310;55.586;12.286;2023-05-03T00:03:29;102575.81;;;11.60
34807;BMP280;18310;55.586;12.286;2023-05-03T00:06:33;102572.91;;;11.56
34807;BMP280;18310;55.586;12.286;2023-05-03T00:09:37;102571.44;;;11.50
34807;BMP280;18310;55.586;12.286;2023-05-03T00:12:41;102580.50;;;11.46
34807;BMP280;18310;55.586;12.286;2023-05-03T00:15:45;102579.34;;;11.38
34807;BMP280;18310;55.586;12.286;2023-05-03T00:18:50;102574.00;;;11.33
34807;BMP280;18310;55.586;12.286;2023-05-03T00:21:54;102579.22;;;11.30
34807;BMP280;18310;55.586;12.286;2023-05-03T00:24:58;102578.94;;;11.31
34807;BMP280;18310;55.586;12.286;2023-05-03T00:28:01;102579.75;;;11.32
34807;BMP280;18310;55.586;12.286;2023-05-03T00:31:07;102579.75;;;11.32
34807;BMP280;18310;55.586;12.286;2023-05-03T00:34:12;102582.78;;;11.30
34807;BMP280;18310;55.586;12.286;2023-05-03T00:37:16;102580.41;;;11.29
34807;BMP280;18310;55.586;12.286;2023-05-03T00:40:19;102584.03;;;11.24
34807;BMP280;18310;55.586;12.286;2023-05-03T00:43:22;102575.16;;;11.18
34807;BMP280;18310;55.586;12.286;2023-05-03T00:46:25;102599.78;;;11.13
34807;BMP280;18310;55.586;12.286;2023-05-03T00:49:30;102597.97;;;11.09
34807;BMP280;18310;55.586;12.286;2023-05-03T00:52:33;102599.75;;;11.05
34807;BMP280;18310;55.586;12.286;2023-05-03T00:55:36;102594.38;;;11.00
34807;BMP280;18310;55.586;12.286;2023-05-03T00:58:39;102589.81;;;10.95
34807;BMP280;18310;55.586;12.286;2023-05-03T01:01:45;102593.47;;;10.91
34807;BMP280;18310;55.586;12.286;2023-05-03T01:04:51;102597.91;;;10.87
34807;BMP280;18310;55.586;12.286;2023-05-03T01:08:00;102595.00;;;10.83
34807;BMP280;18310;55.586;12.286;2023-05-03T01:11:12;102593.41;;;10.82
34807;BMP280;18310;55.586;12.286;2023-05-03T01:14:23;102599.97;;;10.81
34807;BMP280;18310;55.586;12.286;2023-05-03T01:17:35;102598.06;;;10.82
34807;BMP280;18310;55.586;12.286;2023-05-03T01:20:43;102595.41;;;10.76
34807;BMP280;18310;55.586;12.286;2023-05-03T01:23:53;102594.06;;;10.74
34807;BMP280;18310;55.586;12.286;2023-05-03T01:27:00;102591.28;;;10.65
34807;BMP280;18310;55.586;12.286;2023-05-03T01:30:27;102594.72;;;10.57
34807;BMP280;18310;55.586;12.286;2023-05-03T01:33:36;102594.50;;;10.54
34807;BMP280;18310;55.586;12.286;2023-05-03T01:36:43;102585.81;;;10.52
34807;BMP280;18310;55.586;12.286;2023-05-03T01:39:47;102587.63;;;10.43
34807;BMP280;18310;55.586;12.286;2023-05-03T01:42:51;102594.31;;;10.37
34807;BMP280;18310;55.586;12.286;2023-05-03T01:45:57;102599.41;;;10.38
34807;BMP280;18310;55.586;12.286;2023-05-03T01:49:01;102604.06;;;10.38
34807;BMP280;18310;55.586;12.286;2023-05-03T01:52:04;102608.19;;;10.35
34807;BMP280;18310;55.586;12.286;2023-05-03T01:55:08;102604.66;;;10.34
34807;BMP280;18310;55.586;12.286;2023-05-03T01:58:11;102596.00;;;10.32
34807;BMP280;18310;55.586;12.286;2023-05-03T02:01:15;102597.91;;;10.32
34807;BMP280;18310;55.586;12.286;2023-05-03T02:04:19;102601.75;;;10.31
34807;BMP280;18310;55.586;12.286;2023-05-03T02:07:22;102595.78;;;10.29
34807;BMP280;18310;55.586;12.286;2023-05-03T02:10:25;102610.50;;;10.28
34807;BMP280;18310;55.586;12.286;2023-05-03T02:13:28;102608.88;;;10.27
34807;BMP280;18310;55.586;12.286;2023-05-03T02:16:32;102596.25;;;10.17
34807;BMP280;18310;55.586;12.286;2023-05-03T02:19:36;102605.47;;;10.21
34807;BMP280;18310;55.586;12.286;2023-05-03T02:22:39;102612.00;;;10.20
34807;BMP280;18310;55.586;12.286;2023-05-03T02:25:43;102609.84;;;10.17
34807;BMP280;18310;55.586;12.286;2023-05-03T02:28:46;102612.91;;;10.16
34807;BMP280;18310;55.586;12.286;2023-05-03T02:31:51;102620.25;;;10.15
34807;BMP280;18310;55.586;12.286;2023-05-03T02:34:54;102622.47;;;10.13
34807;BMP280;18310;55.586;12.286;2023-05-03T02:37:58;102617.31;;;10.12
34807;BMP280;18310;55.586;12.286;2023-05-03T02:41:01;102615.13;;;10.14
34807;BMP280;18310;55.586;12.286;2023-05-03T02:44:04;102599.47;;;10.06
34807;BMP280;18310;55.586;12.286;2023-05-03T02:47:09;102617.72;;;10.19
34807;BMP280;18310;55.586;12.286;2023-05-03T02:50:12;102622.81;;;10.25
34807;BMP280;18310;55.586;12.286;2023-05-03T02:53:15;102628.34;;;10.34
34807;BMP280;18310;55.586;12.286;2023-05-03T02:56:18;102620.63;;;10.41
34807;BMP280;18310;55.586;12.286;2023-05-03T02:59:21;102621.81;;;10.49
34807;BMP280;18310;55.586;12.286;2023-05-03T03:02:26;102625.03;;;10.51
34807;BMP280;18310;55.586;12.286;2023-05-03T03:05:29;102616.06;;;10.50
34807;BMP280;18310;55.586;12.286;2023-05-03T03:08:34;102624.22;;;10.50
34807;BMP280;18310;55.586;12.286;2023-05-03T03:11:37;102623.00;;;10.43
34807;BMP280;18310;55.586;12.286;2023-05-03T03:15:05;102619.44;;;10.47
34807;BMP280;18310;55.586;12.286;2023-05-03T03:18:08;102626.94;;;10.50
34807;BMP280;18310;55.586;12.286;2023-05-03T03:21:11;102630.47;;;10.51
34807;BMP280;18310;55.586;12.286;2023-05-03T03:24:14;102628.56;;;10.51
34807;BMP280;18310;55.586;12.286;2023-05-03T03:27:17;102635.13;;;10.50
34807;BMP280;18310;55.586;12.286;2023-05-03T03:30:24;102638.34;;;10.52
34807;BMP280;18310;55.586;12.286;2023-05-03T03:33:27;102624.75;;;10.52
34807;BMP280;18310;55.586;12.286;2023-05-03T03:36:30;102644.03;;;10.56
34807;BMP280;18310;55.586;12.286;2023-05-03T03:39:33;102640.69;;;10.59
34807;BMP280;18310;55.586;12.286;2023-05-03T03:42:38;102640.91;;;10.62
34807;BMP280;18310;55.586;12.286;2023-05-03T03:45:42;102639.78;;;10.63
34807;BMP280;18310;55.586;12.286;2023-05-03T03:48:45;102654.50;;;10.62
34807;BMP280;18310;55.586;12.286;2023-05-03T03:51:49;102647.66;;;10.65
34807;BMP280;18310;55.586;12.286;2023-05-03T03:54:52;102642.41;;;10.68
34807;BMP280;18310;55.586;12.286;2023-05-03T03:57:56;102631.91;;;10.62
34807;BMP280;18310;55.586;12.286;2023-05-03T04:01:00;102645.25;;;10.63
34807;BMP280;18310;55.586;12.286;2023-05-03T04:04:04;102655.47;;;10.71
34807;BMP280;18310;55.586;12.286;2023-05-03T04:07:07;102655.84;;;10.78
34807;BMP280;18310;55.586;12.286;2023-05-03T04:10:11;102656.22;;;10.86
34807;BMP280;18310;55.586;12.286;2023-05-03T04:13:14;102658.16;;;10.85
34807;BMP280;18310;55.586;12.286;2023-05-03T04:16:19;102654.03;;;10.88
34807;BMP280;18310;55.586;12.286;2023-05-03T04:19:23;102659.19;;;10.89
34807;BMP280;18310;55.586;12.286;2023-05-03T04:22:27;102659.09;;;10.94
34807;BMP280;18310;55.586;12.286;2023-05-03T04:25:31;102667.13;;;10.99
34807;BMP280;18310;55.586;12.286;2023-05-03T04:28:34;102663.81;;;11.02
34807;BMP280;18310;55.586;12.286;2023-05-03T04:31:41;102670.88;;;11.03
34807;BMP280;18310;55.586;12.286;2023-05-03T04:34:44;102668.16;;;11.03
34807;BMP280;18310;55.586;12.286;2023-05-03T04:37:50;102675.91;;;11.10
34807;BMP280;18310;55.586;12.286;2023-05-03T04:40:53;102669.63;;;11.23
34807;BMP280;18310;55.586;12.286;2023-05-03T04:43:57;102672.50;;;11.54
34807;BMP280;18310;55.586;12.286;2023-05-03T04:47:02;102672.22;;;12.00
34807;BMP280;18310;55.586;12.286;2023-05-03T04:50:06;102672.34;;;12.48
34807;BMP280;18310;55.586;12.286;2023-05-03T04:53:11;102674.16;;;13.09
34807;BMP280;18310;55.586;12.286;2023-05-03T04:56:15;102673.53;;;13.72
34807;BMP280;18310;55.586;12.286;2023-05-03T04:59:18;102680.78;;;14.32
34807;BMP280;18310;55.586;12.286;2023-05-03T05:02:23;102679.06;;;14.94
34807;BMP280;18310;55.586;12.286;2023-05-03T05:05:27;102686.47;;;15.56
34807;BMP280;18310;55.586;12.286;2023-05-03T05:08:30;102686.97;;;16.15
34807;BMP280;18310;55.586;12.286;2023-05-03T05:11:33;102690.88;;;16.75
34807;BMP280;18310;55.586;12.286;2023-05-03T05:14:36;102694.19;;;17.32
34807;BMP280;18310;55.586;12.286;2023-05-03T05:17:41;102695.63;;;17.85
34807;BMP280;18310;55.586;12.286;2023-05-03T05:20:45;102691.94;;;18.25
34807;BMP280;18310;55.586;12.286;2023-05-03T05:23:48;102690.66;;;18.73
34807;BMP280;18310;55.586;12.286;2023-05-03T05:26:52;102687.44;;;19.06
34807;BMP280;18310;55.586;12.286;2023-05-03T05:29:56;102702.22;;;19.36
34807;BMP280;18310;55.586;12.286;2023-05-03T05:33:00;102696.00;;;19.39
34807;BMP280;18310;55.586;12.286;2023-05-03T05:36:04;102696.13;;;19.46
34807;BMP280;18310;55.586;12.286;2023-05-03T05:39:08;102704.53;;;19.30
34807;BMP280;18310;55.586;12.286;2023-05-03T05:42:11;102707.69;;;19.13
34807;BMP280;18310;55.586;12.286;2023-05-03T05:45:14;102710.31;;;18.87
34807;BMP280;18310;55.586;12.286;2023-05-03T05:48:19;102724.59;;;18.73
34807;BMP280;18310;55.586;12.286;2023-05-03T05:51:22;102719.19;;;18.61
34807;BMP280;18310;55.586;12.286;2023-05-03T05:54:25;102724.59;;;18.73
34807;BMP280;18310;55.586;12.286;2023-05-03T05:57:31;102725.56;;;18.65
34807;BMP280;18310;55.586;12.286;2023-05-03T06:00:34;102728.97;;;18.74
34807;BMP280;18310;55.586;12.286;2023-05-03T06:03:39;102734.38;;;19.06
34807;BMP280;18310;55.586;12.286;2023-05-03T06:06:42;102730.72;;;19.02
34807;BMP280;18310;55.586;12.286;2023-05-03T06:09:45;102731.66;;;18.90
34807;BMP280;18310;55.586;12.286;2023-05-03T06:12:49;102736.59;;;18.81
34807;BMP280;18310;55.586;12.286;2023-05-03T06:15:52;102738.28;;;18.85
34807;BMP280;18310;55.586;12.286;2023-05-03T06:18:57;102738.31;;;18.70
34807;BMP280;18310;55.586;12.286;2023-05-03T06:22:00;102740.16;;;19.00
34807;BMP280;18310;55.586;12.286;2023-05-03T06:25:04;102743.00;;;19.04
34807;BMP280;18310;55.586;12.286;2023-05-03T06:28:08;102741.44;;;19.03
34807;BMP280;18310;55.586;12.286;2023-05-03T06:31:11;102740.22;;;19.39
34807;BMP280;18310;55.586;12.286;2023-05-03T06:34:18;102735.34;;;19.97
34807;BMP280;18310;55.586;12.286;2023-05-03T06:37:22;102745.47;;;20.35
34807;BMP280;18310;55.586;12.286;2023-05-03T06:40:25;102747.66;;;20.75
34807;BMP280;18310;55.586;12.286;2023-05-03T06:43:28;102747.66;;;20.75
34807;BMP280;18310;55.586;12.286;2023-05-03T06:46:31;102712.75;;;20.40
34807;BMP280;18310;55.586;12.286;2023-05-03T06:49:36;102753.44;;;20.40
34807;BMP280;18310;55.586;12.286;2023-05-03T06:52:39;102751.88;;;20.16
34807;BMP280;18310;55.586;12.286;2023-05-03T06:55:43;102750.78;;;19.98
34807;BMP280;18310;55.586;12.286;2023-05-03T06:58:47;102751.28;;;20.03
34807;BMP280;18310;55.586;12.286;2023-05-03T07:01:50;102760.78;;;20.29
34807;BMP280;18310;55.586;12.286;2023-05-03T07:04:55;102764.84;;;20.61
34807;BMP280;18310;55.586;12.286;2023-05-03T07:07:58;102756.56;;;20.91
34807;BMP280;18310;55.586;12.286;2023-05-03T07:11:01;102760.97;;;20.95
34807;BMP280;18310;55.586;12.286;2023-05-03T07:14:05;102765.75;;;20.69
34807;BMP280;18310;55.586;12.286;2023-05-03T07:17:09;102765.16;;;20.82
34807;BMP280;18310;55.586;12.286;2023-05-03T07:20:14;102753.13;;;21.01
34807;BMP280;18310;55.586;12.286;2023-05-03T07:23:17;102737.75;;;21.03
34807;BMP280;18310;55.586;12.286;2023-05-03T07:26:20;102760.38;;;20.79
34807;BMP280;18310;55.586;12.286;2023-05-03T07:29:24;102768.28;;;20.28
34807;BMP280;18310;55.586;12.286;2023-05-03T07:32:28;102758.91;;;19.87
34807;BMP280;18310;55.586;12.286;2023-05-03T07:35:33;102762.22;;;19.55
34807;BMP280;18310;55.586;12.286;2023-05-03T07:38:36;102758.59;;;19.31
34807;BMP280;18310;55.586;12.286;2023-05-03T07:41:39;102763.66;;;19.10
34807;BMP280;18310;55.586;12.286;2023-05-03T07:44:42;102757.75;;;18.92
34807;BMP280;18310;55.586;12.286;2023-05-03T07:47:46;102755.75;;;18.74
34807;BMP280;18310;55.586;12.286;2023-05-03T07:50:50;102746.69;;;18.58
34807;BMP280;18310;55.586;12.286;2023-05-03T07:53:54;102747.16;;;18.44
34807;BMP280;18310;55.586;12.286;2023-05-03T07:56:57;102763.88;;;18.35
34807;BMP280;18310;55.586;12.286;2023-05-03T08:00:00;102762.63;;;18.33
34807;BMP280;18310;55.586;12.286;2023-05-03T08:03:05;102754.81;;;18.35
34807;BMP280;18310;55.586;12.286;2023-05-03T08:06:10;102757.91;;;18.33
34807;BMP280;18310;55.586;12.286;2023-05-03T08:09:14;102767.44;;;18.36
34807;BMP280;18310;55.586;12.286;2023-05-03T08:12:17;102768.22;;;18.36
34807;BMP280;18310;55.586;12.286;2023-05-03T08:15:20;102771.69;;;18.33
34807;BMP280;18310;55.586;12.286;2023-05-03T08:18:23;102765.31;;;18.29
34807;BMP280;18310;55.586;12.286;2023-05-03T08:21:48;102762.34;;;18.22
34807;BMP280;18310;55.586;12.286;2023-05-03T08:24:51;102779.59;;;18.19
34807;BMP280;18310;55.586;12.286;2023-05-03T08:27:54;102766.09;;;18.14
34807;BMP280;18310;55.586;12.286;2023-05-03T08:30:58;102770.38;;;18.27
34807;BMP280;18310;55.586;12.286;2023-05-03T08:34:04;102777.66;;;18.35
34807;BMP280;18310;55.586;12.286;2023-05-03T08:37:09;102774.22;;;18.38
34807;BMP280;18310;55.586;12.286;2023-05-03T08:40:12;102781.50;;;18.62
34807;BMP280;18310;55.586;12.286;2023-05-03T08:43:18;102788.56;;;18.79
34807;BMP280;18310;55.586;12.286;2023-05-03T08:46:23;102789.16;;;18.88
34807;BMP280;18310;55.586;12.286;2023-05-03T08:49:28;102783.81;;;18.95
34807;BMP280;18310;55.586;12.286;2023-05-03T08:52:34;102785.25;;;18.89
34807;BMP280;18310;55.586;12.286;2023-05-03T08:55:37;102779.09;;;18.76
34807;BMP280;18310;55.586;12.286;2023-05-03T08:58:41;102796.25;;;18.85
34807;BMP280;18310;55.586;12.286;2023-05-03T09:01:44;102805.00;;;18.91
34807;BMP280;18310;55.586;12.286;2023-05-03T09:04:48;102809.03;;;18.93
34807;BMP280;18310;55.586;12.286;2023-05-03T09:08:01;102798.81;;;18.94
34807;BMP280;18310;55.586;12.286;2023-05-03T09:11:04;102798.34;;;18.92
34807;BMP280;18310;55.586;12.286;2023-05-03T09:14:09;102786.72;;;18.83
34807;BMP280;18310;55.586;12.286;2023-05-03T09:17:13;102808.56;;;19.07
34807;BMP280;18310;55.586;12.286;2023-05-03T09:20:32;102809.59;;;19.18
34807;BMP280;18310;55.586;12.286;2023-05-03T09:23:39;102820.72;;;19.22
34807;BMP280;18310;55.586;12.286;2023-05-03T09:26:44;102824.13;;;19.15
34807;BMP280;18310;55.586;12.286;2023-05-03T09:29:48;102829.75;;;19.03
34807;BMP280;18310;55.586;12.286;2023-05-03T09:32:51;102828.44;;;18.97
34807;BMP280;18310;55.586;12.286;2023-05-03T09:35:56;102834.44;;;18.99
34807;BMP280;18310;55.586;12.286;2023-05-03T09:39:15;102821.50;;;19.03
34807;BMP280;18310;55.586;12.286;2023-05-03T09:42:18;102828.50;;;19.16
34807;BMP280;18310;55.586;12.286;2023-05-03T09:45:22;102826.31;;;19.25
34807;BMP280;18310;55.586;12.286;2023-05-03T09:48:26;102835.69;;;19.40
34807;BMP280;18310;55.586;12.286;2023-05-03T09:51:30;102831.56;;;19.49
34807;BMP280;18310;55.586;12.286;2023-05-03T09:54:35;102827.06;;;19.61
34807;BMP280;18310;55.586;12.286;2023-05-03T09:57:39;102832.88;;;19.75
34807;BMP280;18310;55.586;12.286;2023-05-03T10:00:43;102825.88;;;19.81
34807;BMP280;18310;55.586;12.286;2023-05-03T10:03:48;102822.66;;;19.98
34807;BMP280;18310;55.586;12.286;2023-05-03T10:06:53;102812.28;;;19.91
34807;BMP280;18310;55.586;12.286;2023-05-03T10:10:02;102827.31;;;19.94
34807;BMP280;18310;55.586;12.286;2023-05-03T10:13:06;102833.81;;;19.82
34807;BMP280;18310;55.586;12.286;2023-05-03T10:16:14;102832.88;;;19.75
34807;BMP280;18310;55.586;12.286;2023-05-03T10:19:22;102838.72;;;19.70
34807;BMP280;18310;55.586;12.286;2023-05-03T10:22:29;102838.81;;;19.58
34807;BMP280;18310;55.586;12.286;2023-05-03T10:25:35;102837.81;;;19.46
34807;BMP280;18310;55.586;12.286;2023-05-03T10:28:38;102831.78;;;19.41
34807;BMP280;18310;55.586;12.286;2023-05-03T10:31:43;102833.06;;;19.43
34807;BMP280;18310;55.586;12.286;2023-05-03T10:34:55;102830.69;;;19.45
34807;BMP280;18310;55.586;12.286;2023-05-03T10:38:12;102829.91;;;19.45
34807;BMP280;18310;55.586;12.286;2023-05-03T10:41:24;102834.41;;;19.53
34807;BMP280;18310;55.586;12.286;2023-05-03T10:44:34;102839.59;;;19.55
34807;BMP280;18310;55.586;12.286;2023-05-03T10:47:40;102837.69;;;19.59
34807;BMP280;18310;55.586;12.286;2023-05-03T10:50:45;102844.81;;;19.60
34807;BMP280;18310;55.586;12.286;2023-05-03T10:53:48;102835.59;;;19.52
34807;BMP280;18310;55.586;12.286;2023-05-03T10:56:55;102830.50;;;19.54
34807;BMP280;18310;55.586;12.286;2023-05-03T10:59:58;102820.50;;;19.49
34807;BMP280;18310;55.586;12.286;2023-05-03T11:03:10;102839.44;;;19.47
34807;BMP280;18310;55.586;12.286;2023-05-03T11:06:31;102839.16;;;19.33
34807;BMP280;18310;55.586;12.286;2023-05-03T11:09:35;102851.19;;;19.25
34807;BMP280;18310;55.586;12.286;2023-05-03T11:13:01;102846.28;;;19.19
34807;BMP280;18310;55.586;12.286;2023-05-03T11:16:05;102850.31;;;19.21
34807;BMP280;18310;55.586;12.286;2023-05-03T11:19:09;102839.31;;;19.25
34807;BMP280;18310;55.586;12.286;2023-05-03T11:22:12;102828.00;;;19.30
34807;BMP280;18310;55.586;12.286;2023-05-03T11:25:16;102838.34;;;19.52
34807;BMP280;18310;55.586;12.286;2023-05-03T11:28:20;102840.00;;;19.76
34807;BMP280;18310;55.586;12.286;2023-05-03T11:31:23;102845.44;;;19.91
34807;BMP280;18310;55.586;12.286;2023-05-03T11:34:27;102840.31;;;19.90
34807;BMP280;18310;55.586;12.286;2023-05-03T11:37:30;102838.97;;;19.84
34807;BMP280;18310;55.586;12.286;2023-05-03T11:40:34;102843.28;;;19.81
34807;BMP280;18310;55.586;12.286;2023-05-03T11:43:42;102837.31;;;19.79
34807;BMP280;18310;55.586;12.286;2023-05-03T11:46:45;102832.88;;;19.75
34807;BMP280;18310;55.586;12.286;2023-05-03T11:49:51;102847.06;;;19.73
34807;BMP280;18310;55.586;12.286;2023-05-03T11:52:55;102839.59;;;19.74
34807;BMP280;18310;55.586;12.286;2023-05-03T11:55:59;102834.94;;;19.78
34807;BMP280;18310;55.586;12.286;2023-05-03T11:59:05;102848.31;;;19.76
34807;BMP280;18310;55.586;12.286;2023-05-03T12:02:10;102839.81;;;19.65
34807;BMP280;18310;55.586;12.286;2023-05-03T12:05:14;102833.19;;;19.50
34807;BMP280;18310;55.586;12.286;2023-05-03T12:08:19;102833.31;;;19.38
34807;BMP280;18310;55.586;12.286;2023-05-03T12:11:25;102839.16;;;19.33
34807;BMP280;18310;55.586;12.286;2023-05-03T12:14:57;102838.34;;;19.33
34807;BMP280;18310;55.586;12.286;2023-05-03T12:18:04;102845.72;;;19.29
34807;BMP280;18310;55.586;12.286;2023-05-03T12:21:10;102844.59;;;19.30
34807;BMP280;18310;55.586;12.286;2023-05-03T12:24:19;102841.28;;;19.24
34807;BMP280;18310;55.586;12.286;2023-05-03T12:27:25;102850.72;;;19.23
34807;BMP280;18310;55.586;12.286;2023-05-03T12:30:31;102844.03;;;19.24
34807;BMP280;18310;55.586;12.286;2023-05-03T12:33:35;102847.44;;;19.18
34807;BMP280;18310;55.586;12.286;2023-05-03T12:36:39;102851.47;;;19.05
34807;BMP280;18310;55.586;12.286;2023-05-03T12:39:45;102843.06;;;18.97
34807;BMP280;18310;55.586;12.286;2023-05-03T12:43:04;102837.06;;;18.95
34807;BMP280;18310;55.586;12.286;2023-05-03T12:46:08;102838.06;;;19.03
34807;BMP280;18310;55.586;12.286;2023-05-03T12:49:17;102844.47;;;19.07
34807;BMP280;18310;55.586;12.286;2023-05-03T12:52:24;102848.84;;;19.08
34807;BMP280;18310;55.586;12.286;2023-05-03T12:55:30;102830.38;;;19.12
34807;BMP280;18310;55.586;12.286;2023-05-03T12:58:41;102823.91;;;19.24
34807;BMP280;18310;55.586;12.286;2023-05-03T13:02:07;102832.81;;;19.33
34807;BMP280;18310;55.586;12.286;2023-05-03T13:05:13;102830.19;;;19.40
34807;BMP280;18310;55.586;12.286;2023-05-03T13:08:21;102824.31;;;19.41
34807;BMP280;18310;55.586;12.286;2023-05-03T13:11:31;102827.41;;;19.40
34807;BMP280;18310;55.586;12.286;2023-05-03T13:14:35;102823.97;;;19.43
34807;BMP280;18310;55.586;12.286;2023-05-03T13:17:40;102818.06;;;19.44
34807;BMP280;18310;55.586;12.286;2023-05-03T13:20:48;102813.53;;;19.36
34807;BMP280;18310;55.586;12.286;2023-05-03T13:23:52;102814.53;;;19.28
34807;BMP280;18310;55.586;12.286;2023-05-03T13:26:55;102814.69;;;19.35
34807;BMP280;18310;55.586;12.286;2023-05-03T13:29:59;102805.25;;;19.36
34807;BMP280;18310;55.586;12.286;2023-05-03T13:33:04;102811.13;;;19.35
34807;BMP280;18310;55.586;12.286;2023-05-03T13:36:09;102808.75;;;19.33
34807;BMP280;18310;55.586;12.286;2023-05-03T13:39:12;102806.94;;;19.41
34807;BMP280;18310;55.586;12.286;2023-05-03T13:42:15;102805.44;;;19.43
34807;BMP280;18310;55.586;12.286;2023-05-03T13:45:18;102798.41;;;19.49
34807;BMP280;18310;55.586;12.286;2023-05-03T13:48:23;102793.78;;;19.53
34807;BMP280;18310;55.586;12.286;2023-05-03T13:51:27;102808.78;;;19.52
34807;BMP280;18310;55.586;12.286;2023-05-03T13:54:30;102808.09;;;19.59
34807;BMP280;18310;55.586;12.286;2023-05-03T13:57:33;102798.25;;;19.62
34807;BMP280;18310;55.586;12.286;2023-05-03T14:00:36;102793.81;;;19.57
34807;BMP280;18310;55.586;12.286;2023-05-03T14:03:40;102793.53;;;19.62
34807;BMP280;18310;55.586;12.286;2023-05-03T14:06:45;102790.34;;;19.60
34807;BMP280;18310;55.586;12.286;2023-05-03T14:09:48;102795.84;;;19.57
34807;BMP280;18310;55.586;12.286;2023-05-03T14:12:51;102794.94;;;19.52
34807;BMP280;18310;55.586;12.286;2023-05-03T14:15:55;102801.09;;;19.46
34807;BMP280;18310;55.586;12.286;2023-05-03T14:18:59;102790.44;;;19.44
34807;BMP280;18310;55.586;12.286;2023-05-03T14:22:02;102791.97;;;19.42
34807;BMP280;18310;55.586;12.286;2023-05-03T14:25:07;102794.19;;;19.36
34807;BMP280;18310;55.586;12.286;2023-05-03T14:28:10;102798.44;;;19.30
34807;BMP280;18310;55.586;12.286;2023-05-03T14:31:13;102788.09;;;19.27
34807;BMP280;18310;55.586;12.286;2023-05-03T14:34:18;102797.44;;;19.23
34807;BMP280;18310;55.586;12.286;2023-05-03T14:37:21;102791.53;;;19.21
34807;BMP280;18310;55.586;12.286;2023-05-03T14:40:25;102790.25;;;19.18
34807;BMP280;18310;55.586;12.286;2023-05-03T14:43:28;102789.09;;;19.19
34807;BMP280;18310;55.586;12.286;2023-05-03T14:46:53;102793.91;;;19.22
34807;BMP280;18310;55.586;12.286;2023-05-03T14:49:59;102788.88;;;19.28
34807;BMP280;18310;55.586;12.286;2023-05-03T14:53:03;102798.44;;;19.30
34807;BMP280;18310;55.586;12.286;2023-05-03T14:56:06;102787.44;;;19.34
34807;BMP280;18310;55.586;12.286;2023-05-03T14:59:09;102767.94;;;19.27
34807;BMP280;18310;55.586;12.286;2023-05-03T15:02:14;102789.44;;;19.33
34807;BMP280;18310;55.586;12.286;2023-05-03T15:05:17;102787.81;;;19.32
34807;BMP280;18310;55.586;12.286;2023-05-03T15:08:20;102789.03;;;19.35
34807;BMP280;18310;55.586;12.286;2023-05-03T15:11:24;102790.28;;;19.37
34807;BMP280;18310;55.586;12.286;2023-05-03T15:14:27;102780.59;;;19.28
34807;BMP280;18310;55.586;12.286;2023-05-03T15:17:31;102790.94;;;19.31
34807;BMP280;18310;55.586;12.286;2023-05-03T15:20:34;102793.59;;;19.27
34807;BMP280;18310;55.586;12.286;2023-05-03T15:23:38;102790.34;;;19.22
34807;BMP280;18310;55.586;12.286;2023-05-03T15:26:42;102789.09;;;19.19
34807;BMP280;18310;55.586;12.286;2023-05-03T15:29:45;102793.75;;;19.15
34807;BMP280;18310;55.586;12.286;2023-05-03T15:32:50;102792.47;;;19.13
34807;BMP280;18310;55.586;12.286;2023-05-03T15:35:54;102800.53;;;19.02
34807;BMP280;18310;55.586;12.286;2023-05-03T15:38:58;102794.44;;;18.93
34807;BMP280;18310;55.586;12.286;2023-05-03T15:42:01;102790.16;;;18.95
34807;BMP280;18310;55.586;12.286;2023-05-03T15:45:06;102790.06;;;18.92
34807;BMP280;18310;55.586;12.286;2023-05-03T15:48:11;102795.78;;;18.83
34807;BMP280;18310;55.586;12.286;2023-05-03T15:51:14;102795.53;;;18.73
34807;BMP280;18310;55.586;12.286;2023-05-03T15:54:18;102788.78;;;18.70
34807;BMP280;18310;55.586;12.286;2023-05-03T15:57:21;102784.75;;;18.68
34807;BMP280;18310;55.586;12.286;2023-05-03T16:00:25;102788.59;;;18.63
34807;BMP280;18310;55.586;12.286;2023-05-03T16:03:30;102792.97;;;18.64
34807;BMP280;18310;55.586;12.286;2023-05-03T16:06:33;102785.75;;;18.60
34807;BMP280;18310;55.586;12.286;2023-05-03T16:09:36;102789.31;;;18.60
34807;BMP280;18310;55.586;12.286;2023-05-03T16:12:39;102790.38;;;18.56
34807;BMP280;18310;55.586;12.286;2023-05-03T16:15:44;102784.00;;;18.52
34807;BMP280;18310;55.586;12.286;2023-05-03T16:18:48;102781.94;;;18.49
34807;BMP280;18310;55.586;12.286;2023-05-03T16:21:52;102774.72;;;18.44
34807;BMP280;18310;55.586;12.286;2023-05-03T16:24:55;102774.22;;;18.38
34807;BMP280;18310;55.586;12.286;2023-05-03T16:27:58;102775.69;;;18.36
34807;BMP280;18310;55.586;12.286;2023-05-03T16:31:01;102776.06;;;18.34
34807;BMP280;18310;55.586;12.286;2023-05-03T16:34:06;102777.22;;;18.33
34807;BMP280;18310;55.586;12.286;2023-05-03T16:37:09;102778.38;;;18.32
34807;BMP280;18310;55.586;12.286;2023-05-03T16:40:13;102774.00;;;18.31
34807;BMP280;18310;55.586;12.286;2023-05-03T16:43:16;102778.22;;;18.25
34807;BMP280;18310;55.586;12.286;2023-05-03T16:46:20;102778.47;;;18.20
34807;BMP280;18310;55.586;12.286;2023-05-03T16:49:24;102772.94;;;18.05
34807;BMP280;18310;55.586;12.286;2023-05-03T16:52:28;102772.19;;;18.08
34807;BMP280;18310;55.586;12.286;2023-05-03T16:55:31;102766.53;;;18.01
34807;BMP280;18310;55.586;12.286;2023-05-03T16:58:34;102770.75;;;17.98
34807;BMP280;18310;55.586;12.286;2023-05-03T17:01:37;102776.22;;;17.94
34807;BMP280;18310;55.586;12.286;2023-05-03T17:04:41;102774.16;;;17.91
34807;BMP280;18310;55.586;12.286;2023-05-03T17:07:44;102772.06;;;17.88
34807;BMP280;18310;55.586;12.286;2023-05-03T17:10:48;102772.34;;;17.83
34807;BMP280;18310;55.586;12.286;2023-05-03T17:13:51;102753.13;;;17.71